createdAt,value
2018-09-26T00:00:31.666Z,6.97
2018-09-26T00:03:03.439Z,6.94
2018-09-26T00:05:31.824Z,6.90
2018-09-26T00:08:00.163Z,6.88
2018-09-26T00:10:28.942Z,6.87
2018-09-26T00:12:57.252Z,6.88
2018-09-26T00:15:25.630Z,6.88
2018-09-26T00:17:54.006Z,6.88
2018-09-26T00:20:22.361Z,6.89
2018-09-26T00:22:50.905Z,6.89
2018-09-26T00:25:19.308Z,6.88
2018-09-26T00:27:47.667Z,6.89
2018-09-26T00:30:16.075Z,6.86
2018-09-26T00:32:44.625Z,6.86
2018-09-26T00:35:12.989Z,6.90
2018-09-26T00:37:41.351Z,6.91
2018-09-26T00:40:09.742Z,6.90
2018-09-26T00:42:38.063Z,6.91
2018-09-26T00:45:06.408Z,6.91
2018-09-26T00:47:34.958Z,6.88
2018-09-26T00:50:03.297Z,6.86
2018-09-26T00:52:31.673Z,6.88
2018-09-26T00:55:00.041Z,6.87
2018-09-26T00:57:28.421Z,6.88
2018-09-26T00:59:56.809Z,6.85
2018-09-26T01:02:25.164Z,6.83
2018-09-26T01:04:53.528Z,6.81
2018-09-26T01:07:21.928Z,6.77
2018-09-26T01:09:50.310Z,6.75
2018-09-26T01:12:18.735Z,6.75
2018-09-26T01:14:47.269Z,6.78
2018-09-26T01:17:15.825Z,6.78
2018-09-26T01:19:44.305Z,6.79
2018-09-26T01:22:12.689Z,6.79
2018-09-26T01:24:41.187Z,6.79
2018-09-26T01:27:09.634Z,6.80
2018-09-26T01:29:38.016Z,6.78
2018-09-26T01:32:06.398Z,6.71
2018-09-26T01:34:34.793Z,6.67
2018-09-26T01:37:03.255Z,6.63
2018-09-26T01:39:31.610Z,6.60
2018-09-26T01:42:00.022Z,6.59
2018-09-26T01:44:28.359Z,6.62
2018-09-26T01:46:56.721Z,6.62
2018-09-26T01:49:25.213Z,6.60
2018-09-26T01:51:53.638Z,6.58
2018-09-26T01:54:22.034Z,6.56
2018-09-26T01:56:50.414Z,6.52
2018-09-26T01:59:18.775Z,6.54
2018-09-26T02:01:47.142Z,6.56
2018-09-26T02:04:15.486Z,6.59
2018-09-26T02:06:43.838Z,6.60
2018-09-26T02:09:13.024Z,6.59
2018-09-26T02:11:41.409Z,6.60
2018-09-26T02:14:09.766Z,6.59
2018-09-26T02:16:38.112Z,6.56
2018-09-26T02:19:06.757Z,6.53
2018-09-26T02:21:35.129Z,6.53
2018-09-26T02:24:03.464Z,6.52
2018-09-26T02:26:31.835Z,6.49
2018-09-26T02:29:00.228Z,6.45
2018-09-26T02:31:28.628Z,6.39
2018-09-26T02:33:56.961Z,6.35
2018-09-26T02:36:25.346Z,6.32
2018-09-26T02:38:54.121Z,6.29
2018-09-26T02:41:22.426Z,6.25
2018-09-26T02:43:50.759Z,6.25
2018-09-26T02:46:19.105Z,6.25
2018-09-26T02:48:52.817Z,6.22
2018-09-26T02:51:21.401Z,6.22
2018-09-26T02:53:49.736Z,6.23
2018-09-26T02:56:18.053Z,6.24
2018-09-26T02:58:46.445Z,6.26
2018-09-26T03:01:14.813Z,6.21
2018-09-26T03:03:43.249Z,6.19
2018-09-26T03:06:11.598Z,6.18
2018-09-26T03:08:40.055Z,6.16
2018-09-26T03:11:08.510Z,6.16
2018-09-26T03:13:36.883Z,6.15
2018-09-26T03:16:06.152Z,6.14
2018-09-26T03:18:34.491Z,6.13
2018-09-26T03:21:02.987Z,6.13
2018-09-26T03:23:31.345Z,6.14
2018-09-26T03:25:59.817Z,6.16
2018-09-26T03:28:28.179Z,6.19
2018-09-26T03:30:56.597Z,6.21
2018-09-26T03:33:24.946Z,6.21
2018-09-26T03:35:54.750Z,6.20
2018-09-26T03:38:23.074Z,6.22
2018-09-26T03:40:51.506Z,6.22
2018-09-26T03:43:19.992Z,6.23
2018-09-26T03:45:48.380Z,6.25
2018-09-26T03:48:16.746Z,6.24
2018-09-26T03:50:45.088Z,6.24
2018-09-26T03:53:14.631Z,6.24
2018-09-26T03:55:42.984Z,6.24
2018-09-26T03:58:11.337Z,6.18
2018-09-26T04:00:39.685Z,6.21
2018-09-26T04:03:08.081Z,6.21
2018-09-26T04:05:36.445Z,6.21
2018-09-26T04:08:04.911Z,6.21
2018-09-26T04:10:33.263Z,6.22
2018-09-26T04:13:01.676Z,6.25
2018-09-26T04:15:30.148Z,6.24
2018-09-26T04:17:58.537Z,6.22
2018-09-26T04:20:26.968Z,6.18
2018-09-26T04:22:55.268Z,6.15
2018-09-26T04:25:23.647Z,6.13
2018-09-26T04:27:52.015Z,6.13
2018-09-26T04:30:20.471Z,6.10
2018-09-26T04:32:48.939Z,6.09
2018-09-26T04:35:17.219Z,6.09
2018-09-26T04:37:45.547Z,6.10
2018-09-26T04:40:13.963Z,6.10
2018-09-26T04:42:42.498Z,6.13
2018-09-26T04:45:10.871Z,6.15
2018-09-26T04:47:39.202Z,6.15
2018-09-26T04:50:07.538Z,6.10
2018-09-26T04:52:35.895Z,6.04
2018-09-26T04:55:04.413Z,6.02
2018-09-26T04:57:32.772Z,5.97
2018-09-26T05:00:01.244Z,5.94
2018-09-26T05:02:29.724Z,5.89
2018-09-26T05:04:58.223Z,5.88
2018-09-26T05:07:26.582Z,5.86
2018-09-26T05:09:54.879Z,5.87
2018-09-26T05:12:24.336Z,5.85
2018-09-26T05:14:54.102Z,5.88
2018-09-26T05:17:22.485Z,5.90
2018-09-26T05:19:50.917Z,5.86
2018-09-26T05:22:19.274Z,5.82
2018-09-26T05:24:47.707Z,5.79
2018-09-26T05:27:16.063Z,5.78
2018-09-26T05:29:44.419Z,5.78
2018-09-26T05:32:12.821Z,5.78
2018-09-26T05:34:41.175Z,5.79
2018-09-26T05:37:09.951Z,5.82
2018-09-26T05:39:38.354Z,5.86
2018-09-26T05:42:06.765Z,5.88
2018-09-26T05:44:35.140Z,5.91
2018-09-26T05:47:03.474Z,5.95
2018-09-26T05:49:31.909Z,6.00
2018-09-26T05:52:00.240Z,6.06
2018-09-26T05:54:28.577Z,6.13
2018-09-26T05:56:56.917Z,6.22
2018-09-26T05:59:25.301Z,6.29
2018-09-26T06:01:53.818Z,6.39
2018-09-26T06:04:22.224Z,6.49
2018-09-26T06:06:50.617Z,6.57
2018-09-26T06:09:18.961Z,6.63
2018-09-26T06:11:47.276Z,6.69
2018-09-26T06:14:15.645Z,6.75
2018-09-26T06:16:44.085Z,6.82
2018-09-26T06:19:12.515Z,6.89
2018-09-26T06:21:40.855Z,6.95
2018-09-26T06:24:09.210Z,7.02
2018-09-26T06:26:37.720Z,7.08
2018-09-26T06:29:06.259Z,7.14
2018-09-26T06:31:34.951Z,7.17
2018-09-26T06:34:03.411Z,7.22
2018-09-26T06:36:31.800Z,7.29
2018-09-26T06:39:00.159Z,7.38
2018-09-26T06:41:28.579Z,7.48
2018-09-26T06:43:56.898Z,7.55
2018-09-26T06:46:25.266Z,7.63
2018-09-26T06:48:53.624Z,7.73
2018-09-26T06:51:21.957Z,7.82
2018-09-26T06:53:50.253Z,7.91
2018-09-26T06:56:18.702Z,7.98
2018-09-26T06:58:47.071Z,8.09
2018-09-26T07:01:15.440Z,8.15
2018-09-26T07:03:43.807Z,8.25
2018-09-26T07:06:12.166Z,8.38
2018-09-26T07:08:40.629Z,8.51
2018-09-26T07:11:08.998Z,8.59
2018-09-26T07:13:37.329Z,8.68
2018-09-26T07:16:05.693Z,8.80
2018-09-26T07:18:34.063Z,8.90
2018-09-26T07:21:02.391Z,8.98
2018-09-26T07:23:30.737Z,9.08
2018-09-26T07:25:59.082Z,9.17
2018-09-26T07:28:27.460Z,9.29
2018-09-26T07:30:55.816Z,9.41
2018-09-26T07:33:24.143Z,9.51
2018-09-26T07:35:52.569Z,9.61
2018-09-26T07:38:20.979Z,9.73
2018-09-26T07:40:49.327Z,9.84
2018-09-26T07:43:17.671Z,9.96
2018-09-26T07:45:46.099Z,10.08
2018-09-26T07:48:14.434Z,10.21
2018-09-26T07:50:42.831Z,10.32
2018-09-26T07:53:11.257Z,10.45
2018-09-26T07:55:39.578Z,10.57
2018-09-26T07:58:07.924Z,10.70
2018-09-26T08:00:36.296Z,10.76
2018-09-26T08:03:04.658Z,10.87
2018-09-26T08:05:33.091Z,10.99
2018-09-26T08:08:01.456Z,11.13
2018-09-26T08:10:29.816Z,11.24
2018-09-26T08:12:58.171Z,11.35
2018-09-26T08:15:26.491Z,11.44
2018-09-26T08:17:54.847Z,11.56
2018-09-26T08:20:23.275Z,11.69
2018-09-26T08:22:51.636Z,11.77
2018-09-26T08:25:20.159Z,11.89
2018-09-26T08:27:48.545Z,11.96
2018-09-26T08:30:16.883Z,12.01
2018-09-26T08:32:45.245Z,12.11
2018-09-26T08:35:13.615Z,12.20
2018-09-26T08:37:41.984Z,12.29
2018-09-26T08:40:10.355Z,12.38
2018-09-26T08:42:38.991Z,12.47
2018-09-26T08:45:07.995Z,12.54
2018-09-26T08:47:36.429Z,12.55
2018-09-26T08:50:05.093Z,12.55
2018-09-26T08:52:33.432Z,12.63
2018-09-26T08:55:01.812Z,12.67
2018-09-26T08:57:30.149Z,12.75
2018-09-26T08:59:58.736Z,12.76
2018-09-26T09:02:27.051Z,12.79
2018-09-26T09:04:55.417Z,12.85
2018-09-26T09:07:23.749Z,12.90
2018-09-26T09:09:52.104Z,12.95
2018-09-26T09:12:20.433Z,12.98
2018-09-26T09:14:49.052Z,12.99
2018-09-26T09:17:17.187Z,13.04
2018-09-26T09:19:45.494Z,13.06
2018-09-26T09:22:13.849Z,13.08
2018-09-26T09:24:42.232Z,13.07
2018-09-26T09:27:10.629Z,13.13
2018-09-26T09:29:38.977Z,13.21
2018-09-26T09:32:07.539Z,13.27
2018-09-26T09:34:35.914Z,13.36
2018-09-26T09:37:04.249Z,13.46
2018-09-26T09:39:32.577Z,13.58
2018-09-26T09:42:01.001Z,13.64
2018-09-26T09:44:29.436Z,13.72
2018-09-26T09:46:57.767Z,13.81
2018-09-26T09:49:26.216Z,13.94
2018-09-26T09:51:54.653Z,14.01
2018-09-26T09:54:22.981Z,14.08
2018-09-26T09:56:51.369Z,14.13
2018-09-26T09:59:19.706Z,14.13
2018-09-26T10:01:48.137Z,14.11
2018-09-26T10:04:16.525Z,14.12
2018-09-26T10:06:44.855Z,14.21
2018-09-26T10:09:13.217Z,14.20
2018-09-26T10:11:41.589Z,14.28
2018-09-26T10:14:10.787Z,14.33
2018-09-26T10:16:39.166Z,14.39
2018-09-26T10:19:07.518Z,14.46
2018-09-26T10:21:36.998Z,14.45
2018-09-26T10:24:05.369Z,14.50
2018-09-26T10:26:33.736Z,14.54
2018-09-26T10:29:02.127Z,14.57
2018-09-26T10:31:31.696Z,14.64
2018-09-26T10:34:00.039Z,14.61
2018-09-26T10:36:28.361Z,14.59
2018-09-26T10:38:56.721Z,14.60
2018-09-26T10:41:25.086Z,14.63
2018-09-26T10:43:53.571Z,14.62
2018-09-26T10:46:21.930Z,14.65
2018-09-26T10:48:50.240Z,14.70
2018-09-26T10:51:18.587Z,14.71
2018-09-26T10:53:46.922Z,14.72
2018-09-26T10:56:15.310Z,14.68
2018-09-26T10:58:43.624Z,14.71
2018-09-26T11:01:11.977Z,14.70
2018-09-26T11:03:40.287Z,14.71
2018-09-26T11:06:08.648Z,14.68
2018-09-26T11:08:37.081Z,14.64
2018-09-26T11:11:05.554Z,14.64
2018-09-26T11:13:34.828Z,14.64
2018-09-26T11:16:03.158Z,14.64
2018-09-26T11:18:31.594Z,14.68
2018-09-26T11:21:00.149Z,14.69
2018-09-26T11:23:28.504Z,14.73
2018-09-26T11:25:57.038Z,14.72
2018-09-26T11:28:25.478Z,14.70
2018-09-26T11:30:53.815Z,14.70
2018-09-26T11:33:22.273Z,14.71
2018-09-26T11:35:50.726Z,14.73
2018-09-26T11:38:19.149Z,14.78
2018-09-26T11:40:47.841Z,14.80
2018-09-26T11:43:16.284Z,14.80
2018-09-26T11:45:44.613Z,14.83
2018-09-26T11:48:12.955Z,14.86
2018-09-26T11:50:41.345Z,14.90
2018-09-26T11:53:09.799Z,14.95
2018-09-26T11:55:38.121Z,14.96
2018-09-26T11:58:06.862Z,14.91
2018-09-26T12:00:35.232Z,14.94
2018-09-26T12:03:03.605Z,14.94
2018-09-26T12:05:31.996Z,14.91
2018-09-26T12:08:00.715Z,14.94
2018-09-26T12:10:29.093Z,14.99
2018-09-26T12:12:57.534Z,15.04
2018-09-26T12:15:25.860Z,15.11
2018-09-26T12:17:54.200Z,15.13
2018-09-26T12:20:22.557Z,15.17
2018-09-26T12:22:50.942Z,15.17
2018-09-26T12:25:19.286Z,15.16
2018-09-26T12:27:47.690Z,15.21
2018-09-26T12:30:16.121Z,15.24
2018-09-26T12:32:44.559Z,15.25
2018-09-26T12:35:12.887Z,15.26
2018-09-26T12:37:41.302Z,15.33
2018-09-26T12:40:10.160Z,15.38
2018-09-26T12:42:38.728Z,15.43
2018-09-26T12:45:07.181Z,15.44
2018-09-26T12:47:35.525Z,15.46
2018-09-26T12:50:04.234Z,15.47
2018-09-26T12:52:32.610Z,15.47
2018-09-26T12:55:00.986Z,15.51
2018-09-26T12:57:29.310Z,15.51
2018-09-26T12:59:57.694Z,15.55
2018-09-26T13:02:26.171Z,15.56
2018-09-26T13:04:54.400Z,15.61
2018-09-26T13:07:22.764Z,15.65
2018-09-26T13:09:51.118Z,15.67
2018-09-26T13:12:19.458Z,15.66
2018-09-26T13:14:47.812Z,15.67
2018-09-26T13:17:16.139Z,15.71
2018-09-26T13:19:44.548Z,15.72
2018-09-26T13:22:12.907Z,15.74
2018-09-26T13:24:41.237Z,15.74
2018-09-26T13:27:09.736Z,15.81
2018-09-26T13:29:38.123Z,15.91
2018-09-26T13:32:06.550Z,16.01
2018-09-26T13:34:34.992Z,16.02
2018-09-26T13:37:03.361Z,16.02
2018-09-26T13:39:31.888Z,16.09
2018-09-26T13:42:00.182Z,16.10
2018-09-26T13:44:28.513Z,16.16
2018-09-26T13:46:56.873Z,16.15
2018-09-26T13:49:25.228Z,16.15
2018-09-26T13:51:53.568Z,16.21
2018-09-26T13:54:21.941Z,16.28
2018-09-26T13:56:50.369Z,16.35
2018-09-26T13:59:18.738Z,16.35
2018-09-26T14:01:47.174Z,16.33
2018-09-26T14:04:15.539Z,16.34
2018-09-26T14:06:43.867Z,16.32
2018-09-26T14:09:12.217Z,16.32
2018-09-26T14:11:41.693Z,16.33
2018-09-26T14:14:10.166Z,16.35
2018-09-26T14:16:38.438Z,16.38
2018-09-26T14:19:06.996Z,16.37
2018-09-26T14:21:39.039Z,16.30
2018-09-26T14:24:07.776Z,16.29
2018-09-26T14:26:36.777Z,16.26
2018-09-26T14:29:05.171Z,16.24
2018-09-26T14:31:33.532Z,16.32
2018-09-26T14:34:01.881Z,16.35
2018-09-26T14:36:30.257Z,16.35
2018-09-26T14:38:58.977Z,16.32
2018-09-26T14:41:28.332Z,16.31
2018-09-26T14:43:57.062Z,16.34
2018-09-26T14:46:25.522Z,16.32
2018-09-26T14:48:53.916Z,16.37
2018-09-26T14:51:23.062Z,16.31
2018-09-26T14:53:51.393Z,16.37
2018-09-26T14:56:19.769Z,16.40
2018-09-26T14:58:48.139Z,16.43
2018-09-26T15:01:16.495Z,16.41
2018-09-26T15:03:44.876Z,16.35
2018-09-26T15:06:13.345Z,16.29
2018-09-26T15:08:42.013Z,16.23
2018-09-26T15:11:10.328Z,16.21
2018-09-26T15:13:38.665Z,16.22
2018-09-26T15:16:07.519Z,16.21
2018-09-26T15:18:35.894Z,16.20
2018-09-26T15:21:04.238Z,16.19
2018-09-26T15:23:32.626Z,16.23
2018-09-26T15:26:00.975Z,16.24
2018-09-26T15:28:29.398Z,16.25
2018-09-26T15:30:57.760Z,16.22
2018-09-26T15:33:26.080Z,16.16
2018-09-26T15:35:55.492Z,16.13
2018-09-26T15:38:24.001Z,16.12
2018-09-26T15:40:52.251Z,16.11
2018-09-26T15:43:20.608Z,16.05
2018-09-26T15:45:48.968Z,15.99
2018-09-26T15:48:17.366Z,15.94
2018-09-26T15:50:45.697Z,15.95
2018-09-26T15:53:14.036Z,15.90
2018-09-26T15:55:42.396Z,15.87
2018-09-26T15:58:10.764Z,15.87
2018-09-26T16:00:39.113Z,15.83
2018-09-26T16:03:07.507Z,15.79
2018-09-26T16:05:35.916Z,15.76
2018-09-26T16:08:04.399Z,15.72
2018-09-26T16:10:33.524Z,15.69
2018-09-26T16:13:01.875Z,15.71
2018-09-26T16:15:30.268Z,15.71
2018-09-26T16:17:58.664Z,15.67
2018-09-26T16:20:27.689Z,15.64
2018-09-26T16:22:56.025Z,15.60
2018-09-26T16:25:24.464Z,15.56
2018-09-26T16:27:52.781Z,15.53
2018-09-26T16:30:21.162Z,15.48
2018-09-26T16:32:49.588Z,15.47
2018-09-26T16:35:18.649Z,15.41
2018-09-26T16:37:47.008Z,15.36
2018-09-26T16:40:15.486Z,15.29
2018-09-26T16:42:43.909Z,15.25
2018-09-26T16:45:12.243Z,15.21
2018-09-26T16:47:40.659Z,15.16
2018-09-26T16:50:09.292Z,15.11
2018-09-26T16:52:37.545Z,15.08
2018-09-26T16:55:06.588Z,15.04
2018-09-26T16:57:34.945Z,15.01
2018-09-26T17:00:03.277Z,14.96
2018-09-26T17:02:32.759Z,14.93
2018-09-26T17:05:01.097Z,14.85
2018-09-26T17:07:29.518Z,14.79
2018-09-26T17:09:57.875Z,14.70
2018-09-26T17:12:26.221Z,14.64
2018-09-26T17:14:54.565Z,14.59
2018-09-26T17:17:22.887Z,14.51
2018-09-26T17:19:51.555Z,14.47
2018-09-26T17:22:19.863Z,14.43
2018-09-26T17:24:48.226Z,14.37
2018-09-26T17:27:16.558Z,14.33
2018-09-26T17:29:44.912Z,14.28
2018-09-26T17:32:13.293Z,14.24
2018-09-26T17:34:41.793Z,14.20
2018-09-26T17:37:10.105Z,14.15
2018-09-26T17:39:38.812Z,14.11
2018-09-26T17:42:07.212Z,14.05
2018-09-26T17:44:35.623Z,14.00
2018-09-26T17:47:04.023Z,13.93
2018-09-26T17:49:32.550Z,13.90
2018-09-26T17:52:00.912Z,13.89
2018-09-26T17:54:29.268Z,13.87
2018-09-26T17:56:57.626Z,13.86
2018-09-26T17:59:25.959Z,13.83
2018-09-26T18:01:54.341Z,13.81
2018-09-26T18:04:22.731Z,13.79
2018-09-26T18:06:51.075Z,13.78
2018-09-26T18:09:19.418Z,13.72
2018-09-26T18:11:47.743Z,13.68
2018-09-26T18:14:17.320Z,13.61
2018-09-26T18:16:45.682Z,13.56
2018-09-26T18:19:14.011Z,13.49
2018-09-26T18:21:42.718Z,13.43
2018-09-26T18:24:11.046Z,13.41
2018-09-26T18:26:39.356Z,13.37
2018-09-26T18:29:07.721Z,13.36
2018-09-26T18:31:36.095Z,13.33
2018-09-26T18:34:04.641Z,13.30
2018-09-26T18:36:32.977Z,13.27
2018-09-26T18:39:01.348Z,13.21
2018-09-26T18:41:29.956Z,13.15
2018-09-26T18:43:58.331Z,13.11
2018-09-26T18:46:26.721Z,13.03
2018-09-26T18:48:55.063Z,12.96
2018-09-26T18:51:23.403Z,12.88
2018-09-26T18:53:52.540Z,12.81
2018-09-26T18:56:20.866Z,12.78
2018-09-26T18:58:49.277Z,12.74
2018-09-26T19:01:17.638Z,12.70
2018-09-26T19:03:45.955Z,12.66
2018-09-26T19:06:14.524Z,12.62
2018-09-26T19:08:42.894Z,12.58
2018-09-26T19:11:11.274Z,12.56
2018-09-26T19:13:39.617Z,12.52
2018-09-26T19:16:08.015Z,12.48
2018-09-26T19:18:36.413Z,12.44
2018-09-26T19:21:04.860Z,12.39
2018-09-26T19:23:33.198Z,12.35
2018-09-26T19:26:01.604Z,12.30
2018-09-26T19:28:29.928Z,12.25
2018-09-26T19:30:58.294Z,12.21
2018-09-26T19:33:26.637Z,12.18
2018-09-26T19:35:55.604Z,12.14
2018-09-26T19:38:23.937Z,12.11
2018-09-26T19:40:52.256Z,12.08
2018-09-26T19:43:20.617Z,12.02
2018-09-26T19:45:48.989Z,12.00
2018-09-26T19:48:17.437Z,11.97
2018-09-26T19:50:45.770Z,11.92
2018-09-26T19:53:14.112Z,11.90
2018-09-26T19:55:42.517Z,11.87
2018-09-26T19:58:10.887Z,11.85
2018-09-26T20:00:39.280Z,11.83
2018-09-26T20:03:07.619Z,11.80
2018-09-26T20:05:36.052Z,11.78
2018-09-26T20:08:04.512Z,11.75
2018-09-26T20:10:32.839Z,11.73
2018-09-26T20:13:01.186Z,11.70
2018-09-26T20:15:29.599Z,11.68
2018-09-26T20:17:58.301Z,11.67
2018-09-26T20:20:26.650Z,11.65
2018-09-26T20:22:55.024Z,11.63
2018-09-26T20:25:23.356Z,11.61
2018-09-26T20:27:51.755Z,11.58
2018-09-26T20:30:20.149Z,11.55
2018-09-26T20:32:48.519Z,11.55
2018-09-26T20:35:16.929Z,11.53
2018-09-26T20:37:45.303Z,11.51
2018-09-26T20:40:13.617Z,11.49
2018-09-26T20:42:41.949Z,11.48
2018-09-26T20:45:10.291Z,11.51
2018-09-26T20:47:38.670Z,11.53
2018-09-26T20:50:07.120Z,11.53
2018-09-26T20:52:35.486Z,11.51
2018-09-26T20:55:03.952Z,11.51
2018-09-26T20:57:32.346Z,11.50
2018-09-26T21:00:00.706Z,11.48
2018-09-26T21:02:29.075Z,11.45
2018-09-26T21:04:57.471Z,11.44
2018-09-26T21:07:25.831Z,11.43
2018-09-26T21:09:54.279Z,11.41
2018-09-26T21:12:22.681Z,11.39
2018-09-26T21:14:51.040Z,11.35
2018-09-26T21:17:19.483Z,11.33
2018-09-26T21:19:47.811Z,11.28
2018-09-26T21:22:16.181Z,11.23
2018-09-26T21:24:44.961Z,11.21
2018-09-26T21:27:13.363Z,11.19
2018-09-26T21:29:41.696Z,11.22
2018-09-26T21:32:10.162Z,11.26
2018-09-26T21:34:38.476Z,11.27
2018-09-26T21:37:07.715Z,11.26
2018-09-26T21:39:36.092Z,11.26
2018-09-26T21:42:04.425Z,11.25
2018-09-26T21:44:32.844Z,11.26
2018-09-26T21:47:01.191Z,11.28
2018-09-26T21:49:29.566Z,11.25
2018-09-26T21:51:57.910Z,11.22
2018-09-26T21:54:26.283Z,11.20
2018-09-26T21:56:54.668Z,11.15
2018-09-26T21:59:23.010Z,11.09
2018-09-26T22:01:51.371Z,11.03
2018-09-26T22:04:19.738Z,10.99
2018-09-26T22:06:48.542Z,10.96
2018-09-26T22:09:17.829Z,10.92
2018-09-26T22:11:46.231Z,10.93
2018-09-26T22:14:14.609Z,10.93
2018-09-26T22:16:42.995Z,10.88
2018-09-26T22:19:11.488Z,10.83
2018-09-26T22:21:39.859Z,10.79
2018-09-26T22:24:08.419Z,10.76
2018-09-26T22:26:37.928Z,10.76
2018-09-26T22:29:06.333Z,10.76
2018-09-26T22:31:34.695Z,10.77
2018-09-26T22:34:03.043Z,10.76
2018-09-26T22:36:31.402Z,10.73
2018-09-26T22:38:59.866Z,10.73
2018-09-26T22:41:28.237Z,10.72
2018-09-26T22:43:56.710Z,10.68
2018-09-26T22:46:25.082Z,10.67
2018-09-26T22:48:53.462Z,10.64
2018-09-26T22:51:21.814Z,10.63
2018-09-26T22:53:50.177Z,10.60
2018-09-26T22:56:18.547Z,10.58
2018-09-26T22:58:46.907Z,10.59
2018-09-26T23:01:15.289Z,10.56
2018-09-26T23:03:43.624Z,10.52
2018-09-26T23:06:11.998Z,10.51
2018-09-26T23:08:40.359Z,10.47
2018-09-26T23:11:08.896Z,10.45
2018-09-26T23:13:37.354Z,10.44
2018-09-26T23:16:06.471Z,10.42
2018-09-26T23:18:34.833Z,10.37
2018-09-26T23:21:03.236Z,10.37
2018-09-26T23:23:31.820Z,10.36
2018-09-26T23:26:00.213Z,10.37
2018-09-26T23:28:28.610Z,10.35
2018-09-26T23:30:56.958Z,10.32
2018-09-26T23:33:25.405Z,10.30
2018-09-26T23:35:53.721Z,10.33
2018-09-26T23:38:22.129Z,10.36
2018-09-26T23:40:50.482Z,10.38
2018-09-26T23:43:18.853Z,10.38
2018-09-26T23:45:47.299Z,10.38
2018-09-26T23:48:15.645Z,10.38
2018-09-26T23:50:44.005Z,10.41
2018-09-26T23:53:12.417Z,10.47
2018-09-26T23:55:41.060Z,10.50
2018-09-26T23:58:09.409Z,10.53
